createdAt,value
2019-01-12T00:00:01.758Z,101648.81
2019-01-12T00:02:54.721Z,101649.72
2019-01-12T00:05:28.262Z,101653.77
2019-01-12T00:08:01.527Z,101650.05
2019-01-12T00:10:37.454Z,101654.16
2019-01-12T00:13:12.622Z,101655.11
2019-01-12T00:15:45.731Z,101662.56
2019-01-12T00:18:19.434Z,101644.19
2019-01-12T00:20:55.956Z,101654.08
2019-01-12T00:23:29.170Z,101654.22
2019-01-12T00:26:01.948Z,101653.26
2019-01-12T00:28:47.986Z,101649.06
2019-01-12T00:31:37.274Z,101657.31
2019-01-12T00:34:28.896Z,101653.94
2019-01-12T00:37:19.564Z,101651.27
2019-01-12T00:40:08.768Z,101653.63
2019-01-12T00:42:57.992Z,101650.59
2019-01-12T00:45:47.226Z,101646.91
2019-01-12T00:48:37.293Z,101653.07
2019-01-12T00:51:27.069Z,101644.73
2019-01-12T00:54:21.168Z,101641.75
2019-01-12T00:57:11.603Z,101645.53
2019-01-12T01:00:01.212Z,101640.56
2019-01-12T01:02:51.640Z,101637.19
2019-01-12T01:05:41.737Z,101636.70
2019-01-12T01:08:31.336Z,101624.53
2019-01-12T01:11:20.296Z,101631.16
2019-01-12T01:14:09.778Z,101630.50
2019-01-12T01:16:59.010Z,101627.88
2019-01-12T01:19:48.098Z,101627.92
2019-01-12T01:22:37.306Z,101626.27
2019-01-12T01:25:27.642Z,101628.40
2019-01-12T01:28:16.919Z,101627.69
2019-01-12T01:31:07.028Z,101623.36
2019-01-12T01:33:56.941Z,101627.92
2019-01-12T01:36:47.203Z,101630.03
2019-01-12T01:39:37.489Z,101628.84
2019-01-12T01:42:27.170Z,101627.83
2019-01-12T01:45:20.987Z,101633.08
2019-01-12T01:48:10.395Z,101632.42
2019-01-12T01:50:59.788Z,101633.08
2019-01-12T01:53:49.039Z,101629.59
2019-01-12T01:56:38.688Z,101629.59
2019-01-12T01:59:28.183Z,101631.94
2019-01-12T02:02:21.950Z,101624.92
2019-01-12T02:05:11.163Z,101616.39
2019-01-12T02:08:03.651Z,101616.30
2019-01-12T02:10:53.695Z,101616.00
2019-01-12T02:13:42.790Z,101618.39
2019-01-12T02:16:32.405Z,101615.30
2019-01-12T02:19:23.359Z,101614.10
2019-01-12T02:22:13.196Z,101603.61
2019-01-12T02:25:02.838Z,101596.92
2019-01-12T02:27:52.527Z,101595.92
2019-01-12T02:30:41.324Z,101592.10
2019-01-12T02:33:30.953Z,101584.91
2019-01-12T02:36:20.423Z,101590.86
2019-01-12T02:39:09.970Z,101581.51
2019-01-12T02:41:59.378Z,101580.19
2019-01-12T02:44:48.371Z,101576.70
2019-01-12T02:47:37.785Z,101582.05
2019-01-12T02:50:27.711Z,101576.94
2019-01-12T02:53:17.038Z,101583.48
2019-01-12T02:56:09.002Z,101578.00
2019-01-12T02:58:58.337Z,101575.66
2019-01-12T03:01:47.502Z,101569.66
2019-01-12T03:04:37.189Z,101570.80
2019-01-12T03:07:26.150Z,101565.55
2019-01-12T03:10:16.719Z,101562.30
2019-01-12T03:13:07.154Z,101557.73
2019-01-12T03:15:56.305Z,101556.70
2019-01-12T03:18:45.600Z,101554.69
2019-01-12T03:21:36.222Z,101555.70
2019-01-12T03:24:25.517Z,101549.54
2019-01-12T03:27:15.069Z,101544.69
2019-01-12T03:30:13.403Z,101538.20
2019-01-12T03:33:03.125Z,101540.68
2019-01-12T03:35:52.414Z,101536.52
2019-01-12T03:38:41.809Z,101540.00
2019-01-12T03:41:30.522Z,101536.33
2019-01-12T03:44:20.256Z,101539.33
2019-01-12T03:47:09.979Z,101534.66
2019-01-12T03:49:59.666Z,101529.65
2019-01-12T03:52:48.902Z,101537.19
2019-01-12T03:55:40.291Z,101529.70
2019-01-12T03:58:30.018Z,101530.38
2019-01-12T04:01:19.401Z,101521.50
2019-01-12T04:03:56.581Z,101524.36
2019-01-12T04:06:38.803Z,101524.17
2019-01-12T04:09:12.033Z,101520.70
2019-01-12T04:11:54.644Z,101519.91
2019-01-12T04:14:36.848Z,101513.30
2019-01-12T04:17:10.159Z,101513.84
2019-01-12T04:19:45.482Z,101518.36
2019-01-12T04:22:18.741Z,101507.35
2019-01-12T04:25:04.633Z,101504.23
2019-01-12T04:27:38.222Z,101505.67
2019-01-12T04:30:14.165Z,101503.67
2019-01-12T04:33:02.108Z,101509.30
2019-01-12T04:35:35.275Z,101495.42
2019-01-12T04:38:08.573Z,101504.00
2019-01-12T04:40:50.586Z,101495.94
2019-01-12T04:43:26.189Z,101494.94
2019-01-12T04:45:59.687Z,101487.41
2019-01-12T04:48:33.185Z,101492.02
2019-01-12T04:51:06.785Z,101496.03
2019-01-12T04:53:45.452Z,101485.07
2019-01-12T04:56:27.739Z,101488.53
2019-01-12T04:59:01.089Z,101485.64
2019-01-12T05:01:37.927Z,101485.59
2019-01-12T05:04:11.475Z,101484.53
2019-01-12T05:06:44.667Z,101483.68
2019-01-12T05:09:26.936Z,101479.81
2019-01-12T05:12:10.349Z,101471.12
2019-01-12T05:14:43.504Z,101477.52
2019-01-12T05:17:16.813Z,101475.23
2019-01-12T05:19:58.763Z,101475.51
2019-01-12T05:22:32.394Z,101473.25
2019-01-12T05:25:06.571Z,101463.90
2019-01-12T05:27:48.903Z,101468.58
2019-01-12T05:30:24.463Z,101464.44
2019-01-12T05:33:07.825Z,101456.89
2019-01-12T05:35:40.970Z,101462.64
2019-01-12T05:38:30.296Z,101469.97
2019-01-12T05:41:03.470Z,101471.19
2019-01-12T05:43:48.156Z,101463.32
2019-01-12T05:46:21.306Z,101462.37
2019-01-12T05:48:55.231Z,101464.47
2019-01-12T05:51:28.728Z,101459.70
2019-01-12T05:54:02.433Z,101462.42
2019-01-12T05:56:39.719Z,101460.48
2019-01-12T05:59:13.251Z,101455.14
2019-01-12T06:01:51.126Z,101453.20
2019-01-12T06:04:32.134Z,101454.02
2019-01-12T06:07:14.535Z,101448.28
2019-01-12T06:09:57.444Z,101450.08
2019-01-12T06:12:43.217Z,101443.75
2019-01-12T06:15:17.253Z,101446.13
2019-01-12T06:18:02.980Z,101446.42
2019-01-12T06:20:41.210Z,101441.41
2019-01-12T06:23:14.783Z,101433.78
2019-01-12T06:25:48.193Z,101440.35
2019-01-12T06:28:21.808Z,101436.67
2019-01-12T06:30:55.361Z,101433.05
2019-01-12T06:33:29.224Z,101434.06
2019-01-12T06:36:03.952Z,101430.73
2019-01-12T06:38:37.514Z,101438.74
2019-01-12T06:41:11.412Z,101431.80
2019-01-12T06:43:44.693Z,101434.19
2019-01-12T06:46:18.450Z,101428.09
2019-01-12T06:48:51.830Z,101427.63
2019-01-12T06:51:25.203Z,101420.67
2019-01-12T06:53:58.726Z,101413.32
2019-01-12T06:56:40.609Z,101417.91
2019-01-12T06:59:14.361Z,101416.42
2019-01-12T07:01:47.733Z,101417.13
2019-01-12T07:04:19.161Z,101408.80
2019-01-12T07:06:53.769Z,101406.67
2019-01-12T07:09:26.974Z,101401.52
2019-01-12T07:12:00.252Z,101400.38
2019-01-12T07:14:33.767Z,101404.81
2019-01-12T07:17:07.381Z,101399.01
2019-01-12T07:19:43.162Z,101393.86
2019-01-12T07:22:17.519Z,101394.81
2019-01-12T07:25:00.418Z,101385.76
2019-01-12T07:27:34.017Z,101387.62
2019-01-12T07:30:10.269Z,101380.52
2019-01-12T07:32:43.456Z,101383.59
2019-01-12T07:35:17.640Z,101376.78
2019-01-12T07:38:00.123Z,101370.91
2019-01-12T07:40:35.144Z,101365.25
2019-01-12T07:43:08.408Z,101366.92
2019-01-12T07:45:43.063Z,101366.70
2019-01-12T07:48:24.982Z,101366.34
2019-01-12T07:50:58.679Z,101362.68
2019-01-12T07:53:32.156Z,101359.30
2019-01-12T07:56:07.528Z,101361.45
2019-01-12T07:58:40.789Z,101348.64
2019-01-12T08:01:15.247Z,101353.64
2019-01-12T08:03:46.932Z,101345.02
2019-01-12T08:06:20.176Z,101341.69
2019-01-12T08:08:53.489Z,101339.63
2019-01-12T08:11:34.354Z,101341.43
2019-01-12T08:14:21.852Z,101338.98
2019-01-12T08:16:56.166Z,101344.81
2019-01-12T08:19:28.326Z,101339.75
2019-01-12T08:22:12.336Z,101325.62
2019-01-12T08:24:50.475Z,101329.16
2019-01-12T08:28:04.306Z,101326.22
2019-01-12T08:30:52.958Z,101323.16
2019-01-12T08:33:50.280Z,101317.55
2019-01-12T08:36:30.322Z,101324.55
2019-01-12T08:39:10.695Z,101328.36
2019-01-12T08:41:49.571Z,101315.48
2019-01-12T08:44:37.921Z,101313.79
2019-01-12T08:47:25.840Z,101312.60
2019-01-12T08:50:18.372Z,101311.00
2019-01-12T08:53:04.666Z,101312.85
2019-01-12T08:55:37.887Z,101309.61
2019-01-12T08:58:20.672Z,101309.99
2019-01-12T09:01:03.098Z,101296.71
2019-01-12T09:03:36.386Z,101300.39
2019-01-12T09:06:11.898Z,101297.72
2019-01-12T09:08:46.154Z,101281.70
2019-01-12T09:11:19.417Z,101279.66
2019-01-12T09:14:02.340Z,101272.18
2019-01-12T09:16:44.448Z,101260.17
2019-01-12T09:19:18.025Z,101255.09
2019-01-12T09:21:51.674Z,101248.98
2019-01-12T09:24:25.320Z,101250.16
2019-01-12T09:26:59.106Z,101248.30
2019-01-12T09:29:36.663Z,101231.41
2019-01-12T09:32:10.286Z,101230.56
2019-01-12T09:34:44.559Z,101235.97
2019-01-12T09:37:18.844Z,101219.02
2019-01-12T09:39:52.260Z,101218.62
2019-01-12T09:42:36.681Z,101203.59
2019-01-12T09:45:20.959Z,101201.94
2019-01-12T09:48:03.384Z,101196.27
2019-01-12T09:50:36.960Z,101195.69
2019-01-12T09:53:12.044Z,101192.89
2019-01-12T09:55:45.375Z,101187.75
2019-01-12T09:58:20.564Z,101184.00
2019-01-12T10:00:53.926Z,101179.09
2019-01-12T10:03:27.330Z,101168.42
2019-01-12T10:06:01.229Z,101159.87
2019-01-12T10:08:35.043Z,101152.42
2019-01-12T10:11:08.591Z,101138.66
2019-01-12T10:13:41.484Z,101139.67
2019-01-12T10:16:24.040Z,101130.89
2019-01-12T10:18:57.829Z,101134.14
2019-01-12T10:21:40.251Z,101115.67
2019-01-12T10:24:13.515Z,101116.88
2019-01-12T10:26:46.843Z,101106.08
2019-01-12T10:29:20.593Z,101100.03
2019-01-12T10:31:54.963Z,101096.16
2019-01-12T10:34:29.821Z,101092.03
2019-01-12T10:37:05.834Z,101089.33
2019-01-12T10:39:48.163Z,101073.55
2019-01-12T10:42:21.500Z,101074.07
2019-01-12T10:44:55.000Z,101061.06
2019-01-12T10:47:28.333Z,101044.17
2019-01-12T10:50:01.804Z,101047.13
2019-01-12T10:52:35.348Z,101043.13
2019-01-12T10:55:08.727Z,101029.68
2019-01-12T10:57:41.744Z,101022.36
2019-01-12T11:00:19.381Z,101018.00
2019-01-12T11:02:52.707Z,101012.95
2019-01-12T11:05:34.744Z,101000.88
2019-01-12T11:08:08.294Z,100999.54
2019-01-12T11:10:41.352Z,100990.03
2019-01-12T11:13:15.608Z,100982.52
2019-01-12T11:15:49.571Z,100982.64
2019-01-12T11:18:31.768Z,100970.38
2019-01-12T11:21:05.286Z,100969.42
2019-01-12T11:23:38.584Z,100951.87
2019-01-12T11:26:11.878Z,100955.06
2019-01-12T11:28:45.426Z,100938.73
2019-01-12T11:31:33.803Z,100936.31
2019-01-12T11:34:06.988Z,100932.70
2019-01-12T11:36:40.305Z,100930.85
2019-01-12T11:39:13.501Z,100918.36
2019-01-12T11:41:57.876Z,100913.37
2019-01-12T11:44:32.102Z,100903.68
2019-01-12T11:47:14.273Z,100895.59
2019-01-12T11:49:47.959Z,100897.70
2019-01-12T11:52:21.266Z,100894.34
2019-01-12T11:54:54.676Z,100888.36
2019-01-12T11:57:27.958Z,100873.61
2019-01-12T12:00:34.161Z,100871.58
2019-01-12T12:03:06.971Z,100861.11
2019-01-12T12:05:40.170Z,100847.24
2019-01-12T12:08:22.742Z,100851.47
2019-01-12T12:11:05.179Z,100840.70
2019-01-12T12:13:38.479Z,100831.88
2019-01-12T12:16:11.265Z,100830.13
2019-01-12T12:18:53.789Z,100827.16
2019-01-12T12:21:27.705Z,100811.88
2019-01-12T12:24:10.221Z,100804.91
2019-01-12T12:26:44.225Z,100790.92
2019-01-12T12:29:27.288Z,100775.77
2019-01-12T12:32:00.628Z,100776.58
2019-01-12T12:34:43.064Z,100763.66
2019-01-12T12:37:16.861Z,100760.45
2019-01-12T12:40:01.637Z,100751.75
2019-01-12T12:42:35.097Z,100739.03
2019-01-12T12:45:10.551Z,100733.88
2019-01-12T12:47:43.833Z,100730.08
2019-01-12T12:50:18.504Z,100727.31
2019-01-12T12:52:51.701Z,100724.85
2019-01-12T12:55:25.069Z,100728.75
2019-01-12T12:57:59.140Z,100725.27
2019-01-12T13:00:41.375Z,100713.27
2019-01-12T13:03:14.747Z,100715.94
2019-01-12T13:05:48.746Z,100711.75
2019-01-12T13:08:23.000Z,100714.73
2019-01-12T13:11:05.090Z,100711.25
2019-01-12T13:13:38.681Z,100711.25
2019-01-12T13:16:11.460Z,100700.99
2019-01-12T13:18:45.139Z,100695.44
2019-01-12T13:21:18.319Z,100685.89
2019-01-12T13:23:53.228Z,100685.18
2019-01-12T13:26:26.846Z,100679.62
2019-01-12T13:29:00.271Z,100679.62
2019-01-12T13:31:34.116Z,100672.03
2019-01-12T13:34:07.628Z,100669.53
2019-01-12T13:36:41.457Z,100670.47
2019-01-12T13:39:23.664Z,100661.42
2019-01-12T13:41:56.919Z,100660.48
2019-01-12T13:44:31.174Z,100659.67
2019-01-12T13:47:04.459Z,100659.16
2019-01-12T13:49:37.658Z,100652.98
2019-01-12T13:52:11.272Z,100649.92
2019-01-12T13:54:44.880Z,100644.45
2019-01-12T13:57:16.724Z,100640.73
2019-01-12T13:59:48.670Z,100646.38
2019-01-12T14:02:21.682Z,100644.03
2019-01-12T14:04:55.299Z,100640.33
2019-01-12T14:07:37.752Z,100639.16
2019-01-12T14:10:13.010Z,100638.76
2019-01-12T14:12:46.689Z,100640.63
2019-01-12T14:15:20.400Z,100630.74
2019-01-12T14:17:54.115Z,100628.59
2019-01-12T14:20:41.389Z,100634.94
2019-01-12T14:23:15.191Z,100639.88
2019-01-12T14:25:58.875Z,100639.95
2019-01-12T14:28:32.270Z,100638.23
2019-01-12T14:31:04.184Z,100637.00
2019-01-12T14:33:38.152Z,100647.69
2019-01-12T14:36:12.179Z,100644.05
2019-01-12T14:38:54.441Z,100650.21
2019-01-12T14:41:27.938Z,100642.19
2019-01-12T14:44:01.386Z,100643.41
2019-01-12T14:46:35.365Z,100645.67
2019-01-12T14:49:08.985Z,100648.53
2019-01-12T14:51:42.253Z,100642.38
2019-01-12T14:54:15.753Z,100640.92
2019-01-12T14:56:49.085Z,100642.88
2019-01-12T14:59:22.776Z,100640.20
2019-01-12T15:01:56.315Z,100633.92
2019-01-12T15:04:30.446Z,100642.56
2019-01-12T15:07:04.409Z,100632.68
2019-01-12T15:09:53.672Z,100628.36
2019-01-12T15:12:35.850Z,100618.38
2019-01-12T15:15:08.594Z,100624.66
2019-01-12T15:17:41.617Z,100624.16
2019-01-12T15:20:31.623Z,100619.28
2019-01-12T15:23:03.613Z,100609.42
2019-01-12T15:25:37.514Z,100613.34
2019-01-12T15:28:11.046Z,100610.45
2019-01-12T15:30:44.711Z,100611.08
2019-01-12T15:33:16.593Z,100607.00
2019-01-12T15:35:51.592Z,100603.62
2019-01-12T15:38:25.342Z,100593.45
2019-01-12T15:40:58.932Z,100593.95
2019-01-12T15:43:33.893Z,100598.98
2019-01-12T15:46:08.258Z,100594.70
2019-01-12T15:48:42.032Z,100586.28
2019-01-12T15:51:26.295Z,100583.26
2019-01-12T15:54:01.294Z,100576.27
2019-01-12T15:56:36.034Z,100582.67
2019-01-12T15:59:10.555Z,100580.00
2019-01-12T16:01:53.245Z,100582.77
2019-01-12T16:04:36.120Z,100575.37
2019-01-12T16:07:10.730Z,100572.52
2019-01-12T16:09:44.625Z,100570.87
2019-01-12T16:12:18.471Z,100562.97
2019-01-12T16:14:52.318Z,100562.29
2019-01-12T16:17:25.406Z,100559.99
2019-01-12T16:20:00.036Z,100562.57
2019-01-12T16:22:33.883Z,100557.01
2019-01-12T16:25:08.083Z,100561.77
2019-01-12T16:27:41.891Z,100554.46
2019-01-12T16:30:25.445Z,100559.53
2019-01-12T16:33:00.191Z,100559.34
2019-01-12T16:35:49.058Z,100563.69
2019-01-12T16:38:32.870Z,100562.45
2019-01-12T16:41:08.044Z,100565.27
2019-01-12T16:43:43.426Z,100560.27
2019-01-12T16:46:20.347Z,100565.52
2019-01-12T16:48:55.609Z,100564.06
2019-01-12T16:51:29.926Z,100560.77
2019-01-12T16:54:03.250Z,100559.75
2019-01-12T16:56:45.336Z,100566.11
2019-01-12T16:59:18.630Z,100558.22
2019-01-12T17:01:52.471Z,100563.53
2019-01-12T17:04:26.715Z,100563.94
2019-01-12T17:06:59.449Z,100566.42
2019-01-12T17:09:32.807Z,100557.01
2019-01-12T17:12:06.044Z,100562.19
2019-01-12T17:14:48.417Z,100564.52
2019-01-12T17:17:22.015Z,100559.11
2019-01-12T17:20:19.352Z,100562.59
2019-01-12T17:22:53.536Z,100558.39
2019-01-12T17:25:37.774Z,100549.55
2019-01-12T17:28:11.561Z,100563.93
2019-01-12T17:30:45.732Z,100562.19
2019-01-12T17:33:31.573Z,100554.58
2019-01-12T17:36:04.691Z,100554.08
2019-01-12T17:38:38.250Z,100560.75
2019-01-12T17:41:12.260Z,100556.23
2019-01-12T17:43:46.129Z,100560.23
2019-01-12T17:46:20.243Z,100562.31
2019-01-12T17:48:55.091Z,100559.73
2019-01-12T17:51:28.780Z,100555.53
2019-01-12T17:54:02.700Z,100553.98
2019-01-12T17:56:37.312Z,100547.09
2019-01-12T17:59:16.093Z,100551.31
2019-01-12T18:01:50.396Z,100555.94
2019-01-12T18:04:24.549Z,100562.61
2019-01-12T18:06:59.585Z,100552.14
2019-01-12T18:09:34.379Z,100550.50
2019-01-12T18:12:19.206Z,100553.89
2019-01-12T18:14:53.458Z,100554.12
2019-01-12T18:17:27.706Z,100554.12
2019-01-12T18:20:13.911Z,100556.36
2019-01-12T18:22:47.442Z,100550.00
2019-01-12T18:25:22.024Z,100554.22
2019-01-12T18:27:57.052Z,100549.37
2019-01-12T18:30:30.862Z,100547.77
2019-01-12T18:33:03.552Z,100548.05
2019-01-12T18:35:37.689Z,100550.31
2019-01-12T18:38:11.152Z,100541.89
2019-01-12T18:40:44.216Z,100540.98
2019-01-12T18:43:16.392Z,100544.88
2019-01-12T18:45:49.707Z,100542.80
2019-01-12T18:48:22.834Z,100541.37
2019-01-12T18:51:04.808Z,100542.67
2019-01-12T18:53:37.994Z,100536.34
2019-01-12T18:56:12.553Z,100542.52
2019-01-12T18:58:58.994Z,100538.89
2019-01-12T19:01:31.234Z,100535.13
2019-01-12T19:04:04.815Z,100538.10
2019-01-12T19:06:38.236Z,100531.73
2019-01-12T19:09:11.442Z,100532.14
2019-01-12T19:11:53.959Z,100525.25
2019-01-12T19:14:27.590Z,100524.44
2019-01-12T19:17:01.773Z,100516.64
2019-01-12T19:19:45.043Z,100517.64
2019-01-12T19:22:18.579Z,100517.77
2019-01-12T19:24:51.798Z,100520.00
2019-01-12T19:27:33.904Z,100519.29
2019-01-12T19:30:10.412Z,100511.71
2019-01-12T19:32:44.091Z,100509.63
2019-01-12T19:35:17.455Z,100507.70
2019-01-12T19:37:50.633Z,100515.28
2019-01-12T19:40:24.103Z,100512.09
2019-01-12T19:43:12.457Z,100500.16
2019-01-12T19:45:45.612Z,100499.58
2019-01-12T19:48:19.228Z,100503.58
2019-01-12T19:50:52.477Z,100497.72
2019-01-12T19:53:34.362Z,100501.37
2019-01-12T19:56:07.826Z,100497.92
2019-01-12T19:58:41.023Z,100493.83
2019-01-12T20:01:14.613Z,100497.12
2019-01-12T20:03:47.920Z,100493.23
2019-01-12T20:06:32.440Z,100479.67
2019-01-12T20:09:08.826Z,100487.18
2019-01-12T20:11:42.035Z,100485.44
2019-01-12T20:14:31.961Z,100487.77
2019-01-12T20:17:05.262Z,100489.66
2019-01-12T20:19:38.566Z,100506.39
2019-01-12T20:22:11.782Z,100496.64
2019-01-12T20:24:56.413Z,100494.06
2019-01-12T20:27:33.465Z,100495.92
2019-01-12T20:30:06.695Z,100494.50
2019-01-12T20:33:15.688Z,100494.50
2019-01-12T20:36:39.265Z,100501.67
2019-01-12T20:40:23.144Z,100503.91
2019-01-12T20:43:19.402Z,100503.83
2019-01-12T20:46:55.495Z,100477.66
2019-01-12T20:49:53.946Z,100490.00
2019-01-12T20:53:13.278Z,100491.22
2019-01-12T20:56:27.661Z,100498.52
2019-01-12T20:59:31.335Z,100495.34
2019-01-12T21:02:35.683Z,100496.05
2019-01-12T21:05:34.598Z,100485.38
2019-01-12T21:08:30.021Z,100478.61
2019-01-12T21:11:44.071Z,100472.03
2019-01-12T21:14:43.477Z,100464.33
2019-01-12T21:17:18.558Z,100472.34
2019-01-12T21:19:51.836Z,100477.97
2019-01-12T21:22:24.950Z,100478.30
2019-01-12T21:25:09.725Z,100476.97
2019-01-12T21:27:55.033Z,100468.86
2019-01-12T21:30:28.496Z,100464.14
2019-01-12T21:33:01.842Z,100464.14
2019-01-12T21:35:35.340Z,100467.64
2019-01-12T21:38:08.829Z,100457.66
2019-01-12T21:40:42.783Z,100456.95
2019-01-12T21:43:16.720Z,100459.93
2019-01-12T21:45:50.298Z,100452.20
2019-01-12T21:48:22.013Z,100458.48
2019-01-12T21:50:55.710Z,100457.45
2019-01-12T21:53:28.911Z,100457.34
2019-01-12T21:56:01.874Z,100461.44
2019-01-12T21:58:52.610Z,100453.64
2019-01-12T22:01:25.844Z,100453.02
2019-01-12T22:03:58.245Z,100458.45
2019-01-12T22:06:31.490Z,100448.90
2019-01-12T22:09:08.575Z,100444.41
2019-01-12T22:11:42.377Z,100435.24
2019-01-12T22:14:15.921Z,100438.41
2019-01-12T22:16:49.462Z,100439.53
2019-01-12T22:19:20.890Z,100431.11
2019-01-12T22:21:54.191Z,100430.67
2019-01-12T22:24:36.471Z,100429.96
2019-01-12T22:27:09.868Z,100441.14
2019-01-12T22:29:49.896Z,100438.16
2019-01-12T22:32:18.470Z,100435.58
2019-01-12T22:34:51.582Z,100440.83
2019-01-12T22:37:25.228Z,100435.89
2019-01-12T22:39:58.893Z,100436.82
2019-01-12T22:42:32.932Z,100431.17
2019-01-12T22:45:07.308Z,100428.68
2019-01-12T22:47:51.891Z,100425.70
2019-01-12T22:50:25.196Z,100440.61
2019-01-12T22:52:58.397Z,100427.25
2019-01-12T22:55:31.784Z,100427.56
2019-01-12T22:58:14.186Z,100421.56
2019-01-12T23:01:15.532Z,100422.81
2019-01-12T23:03:51.578Z,100428.81
2019-01-12T23:06:24.776Z,100428.50
2019-01-12T23:08:57.167Z,100430.73
2019-01-12T23:11:30.549Z,100421.70
2019-01-12T23:14:04.157Z,100425.39
2019-01-12T23:16:37.347Z,100424.67
2019-01-12T23:19:23.889Z,100411.19
2019-01-12T23:21:57.413Z,100411.11
2019-01-12T23:24:30.593Z,100408.97
2019-01-12T23:27:04.195Z,100414.89
2019-01-12T23:29:37.781Z,100402.38
2019-01-12T23:32:11.088Z,100405.27
2019-01-12T23:34:54.736Z,100401.98
2019-01-12T23:37:37.220Z,100404.95
2019-01-12T23:40:11.053Z,100411.73
2019-01-12T23:42:55.777Z,100406.57
2019-01-12T23:45:29.744Z,100405.98
2019-01-12T23:48:12.343Z,100408.00
2019-01-12T23:50:45.790Z,100407.63
2019-01-12T23:53:19.021Z,100413.25
2019-01-12T23:55:52.353Z,100412.44
2019-01-12T23:58:25.631Z,100413.25
